Home PIREPS Pireps

Flight SLR1661

  • Submitted By: Carl Hermans
  • Departure Airport: Bruxelles National (EBBR)
  • Arrival Airport: Ajaccio-Napoleon-Bonaparte (LFKJ)
  • Aircraft: B737-800 (OO-SLR)
  • Flight Time: 01.43
  • Date Submitted: 19/07/2015
  • Status: Accepted
Flight Details
Gross Revenue:
(124 load / € 0.00 per unit
€ 0.00
Fuel Cost:
(4468 fuel used @ 5.1 / unit)
€ 22,786.80

Additional Log Information:

View Log

Aircraft Used in flight is B737-800 Jetairfly
10:54Flaps 3 Selected at 190ft and 0kts
10:54 Engine 1 Started
10:54 Engine 2 Started
10:54 Navigation Lights ON at 190 AGL
10:54 Beacon Lights ON at 190 AGL
10:54 Brakes are On
10:55 Brakes are Released
10:55 You Took off @ 144 Knots and Flaps at Position 3
Departure Weather
EBBR 190820Z 21005KT 190V250 8000 -RADZ SCT008 BKN012 17/15 Q1010 NOSIGrn
10:55 Landing Gear Up @ 154 Knots and 240 Feet
10:57Flaps Retracted at 2630ft and 208kts
10:57 Below Fl100 you need to turn on the landing lights
10:57 Below FL100 you need to turn on the landing lights
12:22 Above FL100 you need to switch of the landing lights
12:22 Above FL100 you need to switch of the landing lights
12:26Flaps 1 Selected at 5940ft and 240kts
12:26Flaps 2 Selected at 5370ft and 216kts
12:26Flaps 3 Selected at 5330ft and 213kts
12:28Flaps 4 Selected at 3920ft and 152kts
12:31 Landing Gear Down @ 152 Knots and 2070 Feet
12:32Flaps 5 Selected at 1780ft and 150kts
12:32Flaps 6 Selected at 1120ft and 136kts
12:33Flaps 7 Selected at 1080ft and 136kts
12:33Flaps 8 Selected at 1030ft and 135kts
12:34 You Landed @ 124 Knots and with -100 Vertical Speed
Arrival Weather
LFKJ 191000Z 25009KT 9999 FEW040 31/24 Q1014 NOSIGrn
12:34Flaps Retracted at 30ft and 1kts
12:35 Taxi Lights ON at 30 AGL
12:37 Brakes are On
12:37 Engine 1 Stoped
12:37 Engine 2 Stoped
12:38 Brussels Bel-Track1.0.0.11

Route Map

Corporate About Us Our Team Vacancies Information Fleet Route Network Rules and Regulations Operations Flight Schedules Event Center Tours Partners IVAO Vatsim Acars dev FSCB

fb Users Online Belgium Marc Claus, Belgium ISMAIL SAIF , Belgium Martin Witters, Belgium Roger Wijns, South Africa Gabriel Michael,
5 Pilot(s) and 209 Guest(s) Online
CMS by phpVMS - Design by Crazycreatives.com - Copyright © 2018 - Brussels Airlines Virtual